FAHS/HDS METAR and TAF weather

Enter ICAO airport designator
Station Type Date Time Source
FAHS METAR 2018/12/12 05:00 UTC NOAA

FAHS 120500Z AUTO 35004KT //// // ////// 20/17 Q1018


Station Type Date Time Source
FAHS Decoded METAR 2018/12/12 05:00 UTC NOAA

Hoedspruit, South Africa (FAHS) 24-22S 031-02E 500M
Dec 12, 2018 - 12:00 AM EST / 2018.12.12 0500 UTC
Wind: from the N (350 degrees) at 5 MPH (4 KT):0
Temperature: 68 F (20 C)
Dew Point: 62 F (17 C)
Relative Humidity: 82%
Pressure (altimeter): 30.06 in. Hg (1018 hPa)
ob: FAHS 120500Z AUTO 35004KT //// // ////// 20/17 Q1018
cycle: 5

Station Type Date Time Source
FAHS TAF 2017/05/23 04:01 UTC NOAA

TAF FAHS 230300Z 2304/2315 VRB02KT CAVOK TX29/2312ZTN12/2304Z


Example: see airport list